Etusivu
METAR-TAF:

METAR-TAF

Lentoasemat :

Fort Madison Municipal Airport

Fort Madison, Iowa, Yhdysvallat

Leveyspiiri: 40-40N, Pituuspiiri: 091-20W, korkeus merenpinnasta: 221 m

Tämänhetkinen sää

Tämä raportti tehtiin 27 minuuttia sitten, kello 20.55 UTC
Tuuli 7 kn kaakosta
Lämpötila 8°C
Kosteus 61%
Ilmanpaine 1023 hPa
Näkyvyys: 16.1 km
selkeää

METAR: KFSW 162055Z AUTO 14007KT 10SM CLR 08/01 A3020 RMK AO2

Aika: 15:22 (21:22 UTC)


TAF: puuttuu

Säähavainnot ja -ennusteet yli 4000 lentoasemalta (METAR- ja TAF-raportit).

Käytössä olevat sääasemat on merkitty karttaan keltaisilla ja punaisilla pisteillä.

Aseta hiiri pisteen päälle nähdäksesi sääaseman nimen.

Klikkaa sitten nähdäksesi säähavainnot ja -ennusteet.

Kartan vaihtaminen: klikkaa mustalla rastilla varustettuja vihreitä pisteitä, niin voit zoomata sisään; viivalla varustettua vihreää pistettä, niin voit zoomata ulos tai vihreitä nuolia, niin pääset viereisille kartoille.


METAR-TAF: